Time;durP1;ratioP1;P1;durP2;ratioP2;P2;SDS_P1;SDS_P2;PMS_P1;PMS_P2;Temp;Humidity;BMP_temperature;BMP_pressure;BME280_temperature;BME280_humidity;BME280_pressure;Samples;Min_cycle;Max_cycle;Signal;HPM_P1;HPM_P2
2021/04/10 00:00:08;;;;;;;3.87;2.00;;;4.50;59.20;;;;;;1709287;84;21147;-68
2021/04/10 00:02:38;;;;;;;6.47;1.70;;;4.60;59.30;;;;;;1709138;84;21087;-68
2021/04/10 00:05:08;;;;;;;6.78;2.20;;;4.50;59.30;;;;;;1709331;84;21132;-68
2021/04/10 00:07:37;;;;;;;4.12;1.85;;;4.40;59.80;;;;;;1709400;84;21544;-68
2021/04/10 00:10:10;;;;;;;5.05;2.30;;;4.30;59.70;;;;;;1709142;84;21139;-67
2021/04/10 00:12:38;;;;;;;3.87;2.00;;;4.20;60.70;;;;;;1709116;84;21573;-68
2021/04/10 00:15:10;;;;;;;4.28;2.00;;;4.20;61.30;;;;;;1709382;84;21111;-68
2021/04/10 00:17:40;;;;;;;5.37;1.92;;;4.20;60.00;;;;;;1709592;84;21087;-68
2021/04/10 00:20:12;;;;;;;4.47;1.95;;;4.10;58.90;;;;;;1709149;84;21163;-68
2021/04/10 00:22:40;;;;;;;5.15;2.27;;;4.00;59.20;;;;;;1708514;84;21119;-68
2021/04/10 00:25:11;;;;;;;5.25;2.30;;;4.10;59.70;;;;;;1709481;84;21111;-68
2021/04/10 00:27:39;;;;;;;3.90;1.87;;;4.10;59.10;;;;;;1703287;84;21135;-68
2021/04/10 00:30:11;;;;;;;4.60;2.10;;;4.20;60.20;;;;;;1691117;85;21166;-68
2021/04/10 00:32:40;;;;;;;4.28;2.27;;;4.30;59.70;;;;;;1691265;85;21096;-68
2021/04/10 00:35:10;;;;;;;4.78;2.17;;;4.30;59.60;;;;;;1685418;85;21143;-67
2021/04/10 00:37:38;;;;;;;4.97;2.27;;;4.30;60.00;;;;;;1691235;85;21167;-68
2021/04/10 00:40:08;;;;;;;4.08;2.20;;;4.30;59.50;;;;;;1691082;85;21167;-68
2021/04/10 00:42:38;;;;;;;4.97;2.00;;;4.30;59.30;;;;;;1691156;85;21163;-68
2021/04/10 00:45:09;;;;;;;4.50;2.20;;;4.30;58.80;;;;;;1691120;85;21166;-67
2021/04/10 00:47:36;;;;;;;5.85;2.65;;;4.30;58.90;;;;;;1691279;85;21130;-67
2021/04/10 00:50:06;;;;;;;5.00;2.25;;;4.20;60.00;;;;;;1691476;85;21167;-67
2021/04/10 00:52:36;;;;;;;4.10;2.47;;;4.30;60.00;;;;;;1691241;85;21155;-67
2021/04/10 00:55:09;;;;;;;6.33;2.85;;;4.30;59.30;;;;;;1691721;85;21147;-67
2021/04/10 00:57:37;;;;;;;4.70;2.52;;;4.20;60.00;;;;;;1691253;85;21570;-67
2021/04/10 01:00:07;;;;;;;5.47;2.52;;;4.20;59.60;;;;;;1689777;85;21174;-66
2021/04/10 01:02:37;;;;;;;7.95;2.50;;;4.30;59.60;;;;;;1688314;85;21100;-66
2021/04/10 01:05:06;;;;;;;5.58;1.98;;;4.20;58.90;;;;;;1688817;85;21141;-65
2021/04/10 01:07:34;;;;;;;5.08;2.42;;;4.10;59.50;;;;;;1688105;85;21716;-65
2021/04/10 01:10:04;;;;;;;6.33;2.72;;;4.10;59.70;;;;;;1687756;85;21233;-66
2021/04/10 01:12:54;;;;;;;6.28;2.33;;;4.20;60.20;;;;;;1688382;85;21135;-66
2021/04/10 01:15:48;;;;;;;5.67;2.40;;;4.20;59.20;;;;;;1687088;85;21079;-65
2021/04/10 01:18:45;;;;;;;5.35;2.80;;;4.20;60.00;;;;;;1663439;86;21265;-68
2021/04/10 01:21:31;;;;;;;6.85;3.22;;;4.20;59.30;;;;;;1631313;88;21620;-68
2021/04/10 01:24:34;;;;;;;6.15;2.92;;;4.30;60.10;;;;;;1670066;85;21141;-66
2021/04/10 01:27:25;;;;;;;7.10;3.10;;;4.30;59.90;;;;;;1687373;85;21149;-65
2021/04/10 01:30:09;;;;;;;6.17;3.02;;;4.30;59.40;;;;;;1686183;85;21569;-66
2021/04/10 01:33:01;;;;;;;4.70;2.58;;;4.20;59.50;;;;;;1678891;84;21155;-70
2021/04/10 01:35:46;;;;;;;5.95;2.98;;;4.10;61.10;;;;;;1685718;85;21139;-64
2021/04/10 01:38:19;;;;;;;5.00;2.50;;;4.00;60.30;;;;;;1686899;85;21557;-66
2021/04/10 01:40:55;;;;;;;7.37;3.62;;;4.00;60.80;;;;;;1685217;85;21115;-66
2021/04/10 01:43:24;;;;;;;5.05;2.55;;;4.00;62.20;;;;;;1686478;85;21577;-67
2021/04/10 01:45:56;;;;;;;4.95;2.17;;;4.00;61.80;;;;;;1685799;85;21186;-68
2021/04/10 01:48:27;;;;;;;6.08;2.35;;;4.00;61.00;;;;;;1685509;85;21462;-68
2021/04/10 01:50:57;;;;;;;4.47;2.02;;;4.00;61.40;;;;;;1658495;85;21222;-67
2021/04/10 01:53:28;;;;;;;6.40;2.40;;;4.00;61.90;;;;;;1685673;85;21230;-67
2021/04/10 01:55:58;;;;;;;5.03;2.22;;;4.00;62.00;;;;;;1657881;85;21157;-68
2021/04/10 01:58:29;;;;;;;6.42;2.10;;;4.00;62.40;;;;;;1685398;84;21166;-67
2021/04/10 02:00:58;;;;;;;6.17;2.50;;;4.00;62.10;;;;;;1685402;85;21169;-68
2021/04/10 02:03:27;;;;;;;6.05;2.37;;;4.00;61.90;;;;;;1685463;85;21177;-67
2021/04/10 02:05:57;;;;;;;7.67;2.75;;;4.00;61.90;;;;;;1685405;85;21185;-67
2021/04/10 02:08:42;;;;;;;15.70;4.97;;;4.00;60.90;;;;;;1684574;84;21197;-67
2021/04/10 02:11:15;;;;;;;5.40;2.62;;;4.10;60.70;;;;;;1684323;85;21191;-68
2021/04/10 02:13:49;;;;;;;5.00;2.40;;;4.10;61.40;;;;;;1684492;85;21178;-68
2021/04/10 02:16:21;;;;;;;5.17;2.62;;;4.00;60.90;;;;;;1684858;85;21617;-71
2021/04/10 02:18:51;;;;;;;4.72;2.33;;;4.00;61.20;;;;;;1685380;85;21190;-69
2021/04/10 02:21:26;;;;;;;6.50;2.87;;;4.00;62.10;;;;;;1685775;85;21170;-68
2021/04/10 02:23:49;;;;;;;4.85;2.80;;;4.00;62.30;;;;;;1685069;85;21202;-66
2021/04/10 02:26:20;;;;;;;4.42;2.42;;;4.00;61.50;;;;;;1684969;85;21166;-66
2021/04/10 02:28:48;;;;;;;4.55;2.10;;;4.00;61.80;;;;;;1685754;85;21189;-69
2021/04/10 02:31:31;;;;;;;4.47;2.30;;;4.10;62.10;;;;;;1685789;85;21230;-66
2021/04/10 02:34:14;;;;;;;4.20;2.12;;;4.00;62.40;;;;;;1685318;85;21174;-66
2021/04/10 02:36:44;;;;;;;3.65;2.05;;;4.00;61.00;;;;;;1685454;85;21171;-68
2021/04/10 02:39:15;;;;;;;3.95;1.90;;;4.00;61.80;;;;;;1685860;85;21193;-68
2021/04/10 02:41:48;;;;;;;3.83;2.00;;;4.10;61.10;;;;;;1685843;85;21178;-68
2021/04/10 02:44:36;;;;;;;5.37;2.50;;;4.10;62.10;;;;;;1685362;85;21149;-67
2021/04/10 02:47:08;;;;;;;6.42;2.80;;;4.00;62.10;;;;;;1685205;85;21191;-68
2021/04/10 02:49:42;;;;;;;4.92;2.60;;;4.00;62.60;;;;;;1685523;85;21189;-68
2021/04/10 02:52:12;;;;;;;4.90;2.67;;;4.00;62.60;;;;;;1685942;85;21146;-68
2021/04/10 02:54:49;;;;;;;5.95;2.70;;;3.90;62.30;;;;;;1685600;85;21178;-68
2021/04/10 02:57:19;;;;;;;5.62;2.70;;;3.90;62.50;;;;;;1658054;85;21146;-67
2021/04/10 02:59:53;;;;;;;4.95;2.87;;;4.10;62.20;;;;;;1685476;85;21161;-68
2021/04/10 03:02:22;;;;;;;6.75;2.77;;;4.00;62.10;;;;;;1685472;85;21158;-68
2021/04/10 03:04:52;;;;;;;5.28;2.90;;;4.00;61.80;;;;;;1658131;85;21182;-68
2021/04/10 03:07:21;;;;;;;5.42;2.70;;;4.00;61.70;;;;;;1685820;85;21181;-68
2021/04/10 03:09:50;;;;;;;6.78;2.67;;;4.00;61.20;;;;;;1685295;85;21194;-68
2021/04/10 03:12:21;;;;;;;4.55;2.75;;;4.00;60.40;;;;;;1685767;85;21142;-68
2021/04/10 03:14:50;;;;;;;6.28;2.60;;;3.90;60.70;;;;;;1685239;85;21186;-68
2021/04/10 03:17:26;;;;;;;6.78;3.22;;;4.00;60.50;;;;;;1685174;85;21166;-67
2021/04/10 03:19:56;;;;;;;5.03;2.90;;;4.00;59.40;;;;;;1685021;84;21218;-67
2021/04/10 03:22:24;;;;;;;6.97;2.85;;;4.00;59.60;;;;;;1685910;85;21170;-67
2021/04/10 03:24:53;;;;;;;5.72;2.70;;;3.90;60.00;;;;;;1685422;85;21188;-68
2021/04/10 03:27:23;;;;;;;5.08;2.30;;;3.80;60.70;;;;;;1685332;85;21181;-69
2021/04/10 03:29:53;;;;;;;7.33;2.50;;;3.80;60.10;;;;;;1701582;84;21564;-69
2021/04/10 03:32:26;;;;;;;5.22;2.70;;;3.80;61.60;;;;;;1703254;84;21177;-68
2021/04/10 03:34:55;;;;;;;5.53;2.87;;;3.70;61.70;;;;;;1703717;84;21145;-68
2021/04/10 03:37:25;;;;;;;7.15;3.22;;;3.70;61.70;;;;;;1704067;84;21306;-68
2021/04/10 03:39:53;;;;;;;6.92;2.67;;;3.70;61.30;;;;;;1703571;84;21138;-68
2021/04/10 03:42:32;;;;;;;4.92;2.47;;;3.80;60.40;;;;;;1703553;84;21170;-67
2021/04/10 03:45:00;;;;;;;5.97;2.60;;;3.90;60.00;;;;;;1703134;84;21157;-68
2021/04/10 03:47:31;;;;;;;5.65;2.42;;;3.80;60.00;;;;;;1699882;84;21150;-68
2021/04/10 03:49:59;;;;;;;6.00;2.10;;;3.70;60.50;;;;;;1703576;84;21628;-68
2021/04/10 03:52:27;;;;;;;4.05;1.90;;;3.60;62.00;;;;;;1703747;84;21600;-68
2021/04/10 03:54:56;;;;;;;3.52;1.75;;;3.60;63.00;;;;;;1703496;84;21181;-68
2021/04/10 03:57:24;;;;;;;4.25;1.80;;;3.60;63.20;;;;;;1704000;84;21161;-68
2021/04/10 03:59:52;;;;;;;6.05;2.22;;;3.50;63.40;;;;;;1703967;84;21209;-67
2021/04/10 04:02:21;;;;;;;3.58;1.70;;;3.60;64.20;;;;;;1703136;84;21146;-67
2021/04/10 04:04:49;;;;;;;6.37;2.00;;;3.60;63.50;;;;;;1706633;84;21094;-65
2021/04/10 04:07:18;;;;;;;3.83;1.95;;;3.70;63.40;;;;;;1706138;84;21587;-65
2021/04/10 04:09:46;;;;;;;5.25;1.87;;;3.70;62.40;;;;;;1703719;84;21197;-65
2021/04/10 04:12:13;;;;;;;4.50;1.90;;;3.70;62.50;;;;;;1703491;84;21169;-66
2021/04/10 04:14:41;;;;;;;6.47;3.10;;;3.60;62.70;;;;;;1704032;84;21311;-66
2021/04/10 04:17:09;;;;;;;5.00;1.95;;;3.60;63.60;;;;;;1706242;84;21276;-64
2021/04/10 04:19:36;;;;;;;5.10;2.60;;;3.80;63.60;;;;;;1706319;84;21157;-66
2021/04/10 04:22:05;;;;;;;9.15;3.52;;;3.80;63.60;;;;;;1705957;84;21704;-66
2021/04/10 04:24:33;;;;;;;8.10;3.70;;;3.90;63.70;;;;;;1702957;84;21520;-67
2021/04/10 04:27:01;;;;;;;8.85;4.40;;;4.00;63.60;;;;;;1706373;84;22036;-67
2021/04/10 04:29:29;;;;;;;16.30;5.55;;;3.90;63.80;;;;;;1705728;84;21589;-66
2021/04/10 04:31:57;;;;;;;9.60;5.50;;;3.90;63.70;;;;;;1706666;84;21126;-67
2021/04/10 04:34:25;;;;;;;11.65;3.90;;;4.00;62.50;;;;;;1706405;84;21138;-66
2021/04/10 04:36:53;;;;;;;7.45;3.55;;;4.00;62.40;;;;;;1702568;84;21126;-67
2021/04/10 04:39:21;;;;;;;9.73;3.58;;;4.10;62.20;;;;;;1705597;84;21157;-68
2021/04/10 04:41:49;;;;;;;12.98;3.95;;;4.20;61.60;;;;;;1680641;84;21166;-70
2021/04/10 04:44:16;;;;;;;8.65;3.87;;;4.10;61.00;;;;;;1708520;84;21576;-70
2021/04/10 04:46:44;;;;;;;12.68;4.35;;;4.20;61.20;;;;;;1709330;84;21123;-75
2021/04/10 04:49:12;;;;;;;9.85;4.58;;;4.20;61.00;;;;;;1709128;84;21123;-70
2021/04/10 04:51:40;;;;;;;11.55;4.45;;;4.20;60.80;;;;;;1709149;84;21581;-69
2021/04/10 04:54:08;;;;;;;9.15;4.33;;;4.30;61.00;;;;;;1709186;84;21150;-77
2021/04/10 04:56:35;;;;;;;15.40;5.08;;;4.40;60.60;;;;;;1709705;84;21695;-75
2021/04/10 04:59:03;;;;;;;10.10;5.12;;;4.40;60.70;;;;;;1708274;84;21651;-70
2021/04/10 05:01:31;;;;;;;11.80;5.25;;;4.40;60.50;;;;;;1706849;84;21091;-78
2021/04/10 05:03:58;;;;;;;14.93;6.15;;;4.40;60.80;;;;;;1708794;84;21142;-71
2021/04/10 05:06:26;;;;;;;13.58;5.97;;;4.50;60.70;;;;;;1706453;84;21608;-70
2021/04/10 05:08:53;;;;;;;12.75;6.40;;;4.60;61.30;;;;;;1705265;84;21141;-67
2021/04/10 05:11:21;;;;;;;10.60;5.50;;;4.60;62.80;;;;;;1706169;84;21142;-71
2021/04/10 05:13:51;;;;;;;15.00;6.10;;;4.60;61.50;;;;;;1706479;84;21109;-71
2021/04/10 05:16:19;;;;;;;17.98;7.28;;;4.50;62.00;;;;;;1705945;84;21607;-70
2021/04/10 05:18:47;;;;;;;15.65;6.58;;;4.70;61.60;;;;;;1706463;84;21576;-72
2021/04/10 05:21:14;;;;;;;14.80;6.80;;;4.80;61.20;;;;;;1706417;84;21118;-78
2021/04/10 05:23:42;;;;;;;13.38;6.80;;;5.00;61.40;;;;;;1705927;84;21157;-75
2021/04/10 05:26:09;;;;;;;13.62;7.30;;;5.10;60.90;;;;;;1706410;84;21190;-71
2021/04/10 05:28:37;;;;;;;17.37;7.20;;;5.20;60.60;;;;;;1703606;84;21162;-71
2021/04/10 05:31:04;;;;;;;14.10;7.87;;;5.30;59.80;;;;;;1688959;85;21526;-71
2021/04/10 05:33:33;;;;;;;20.68;9.68;;;5.50;60.00;;;;;;1688204;85;21162;-69
2021/04/10 05:36:01;;;;;;;20.27;9.60;;;5.60;59.30;;;;;;1687836;85;21146;-69
2021/04/10 05:38:28;;;;;;;20.75;10.60;;;5.80;59.00;;;;;;1688158;85;21092;-69
2021/04/10 05:40:56;;;;;;;22.05;10.13;;;5.80;58.70;;;;;;1687075;85;21149;-71
2021/04/10 05:43:24;;;;;;;28.15;11.10;;;5.90;58.20;;;;;;1686872;85;21134;-71
2021/04/10 05:45:52;;;;;;;24.55;10.88;;;5.80;58.40;;;;;;1688131;85;21803;-70
2021/04/10 05:48:20;;;;;;;20.23;9.25;;;6.00;59.50;;;;;;1687807;85;21592;-70
2021/04/10 05:50:47;;;;;;;21.50;9.78;;;6.10;59.60;;;;;;1688096;85;21131;-69
2021/04/10 05:53:15;;;;;;;22.95;10.93;;;6.10;59.10;;;;;;1685412;85;21150;-69
2021/04/10 05:55:42;;;;;;;22.27;11.48;;;6.30;58.90;;;;;;1686431;85;21135;-69
2021/04/10 05:58:10;;;;;;;25.27;11.40;;;6.20;58.40;;;;;;1690979;85;21326;-70
2021/04/10 06:00:37;;;;;;;24.92;12.78;;;6.30;58.70;;;;;;1689758;85;21612;-70
2021/04/10 06:03:06;;;;;;;29.75;13.50;;;6.40;58.90;;;;;;1686177;85;21131;-71
2021/04/10 06:05:34;;;;;;;25.88;14.00;;;6.50;58.70;;;;;;1685306;85;21194;-73
2021/04/10 06:08:02;;;;;;;27.27;14.03;;;6.50;59.10;;;;;;1689634;85;21120;-71
2021/04/10 06:10:30;;;;;;;28.17;14.58;;;6.60;59.70;;;;;;1691124;85;21151;-69
2021/04/10 06:12:58;;;;;;;32.08;15.95;;;6.70;60.00;;;;;;1690890;85;21329;-70
2021/04/10 06:15:25;;;;;;;33.15;16.85;;;6.80;58.50;;;;;;1690979;84;21338;-71
2021/04/10 06:17:53;;;;;;;29.10;13.72;;;6.90;58.10;;;;;;1689237;84;21290;-72
2021/04/10 06:20:22;;;;;;;29.12;16.82;;;7.00;57.50;;;;;;1685561;85;21174;-72
2021/04/10 06:22:49;;;;;;;29.02;15.88;;;7.10;57.40;;;;;;1686312;85;21132;-70
2021/04/10 06:25:17;;;;;;;25.70;13.80;;;7.10;57.20;;;;;;1691216;85;21142;-71
2021/04/10 06:27:45;;;;;;;28.47;15.32;;;7.10;57.30;;;;;;1690981;85;21289;-71
2021/04/10 06:30:14;;;;;;;26.50;14.20;;;7.20;57.30;;;;;;1688741;85;21208;-71
2021/04/10 06:32:42;;;;;;;27.87;12.63;;;7.10;57.40;;;;;;1685448;85;21166;-72
2021/04/10 06:35:11;;;;;;;22.55;12.28;;;7.20;56.20;;;;;;1687180;85;21558;-72
2021/04/10 06:37:39;;;;;;;22.00;11.08;;;7.20;55.70;;;;;;1691103;85;21149;-73
2021/04/10 06:40:07;;;;;;;22.48;11.75;;;7.30;56.30;;;;;;1691307;84;21162;-73
2021/04/10 06:42:36;;;;;;;22.75;11.05;;;7.40;55.30;;;;;;1690748;84;21562;-74
2021/04/10 06:45:06;;;;;;;23.22;12.15;;;7.60;55.20;;;;;;1691071;84;21581;-77
2021/04/10 06:47:35;;;;;;;22.95;11.88;;;7.80;54.70;;;;;;1689156;84;21175;-69
2021/04/10 06:50:08;;;;;;;25.68;11.40;;;7.80;54.50;;;;;;1685167;85;21174;-70
2021/04/10 06:52:42;;;;;;;24.05;11.63;;;8.00;54.10;;;;;;1687607;85;21111;-69
2021/04/10 06:55:16;;;;;;;19.67;10.65;;;8.00;53.60;;;;;;1691043;85;21108;-68
2021/04/10 06:58:08;;;;;;;21.00;11.60;;;8.00;53.10;;;;;;1691071;85;21096;-66
2021/04/10 07:00:36;;;;;;;21.68;10.88;;;8.10;53.50;;;;;;1688537;85;21583;-71
2021/04/10 07:03:04;;;;;;;20.25;10.28;;;8.10;53.10;;;;;;1689277;85;21258;-72
2021/04/10 07:05:32;;;;;;;17.15;9.33;;;8.20;53.00;;;;;;1689386;85;21624;-69
2021/04/10 07:08:01;;;;;;;25.27;12.00;;;8.30;52.50;;;;;;1688294;85;21276;-70
2021/04/10 07:10:28;;;;;;;20.02;11.57;;;8.40;52.00;;;;;;1690552;85;21618;-71
2021/04/10 07:12:56;;;;;;;21.27;11.12;;;8.50;51.40;;;;;;1691133;84;21150;-72
2021/04/10 07:15:23;;;;;;;22.13;12.20;;;8.50;51.70;;;;;;1687213;85;21189;-71
2021/04/10 07:17:55;;;;;;;24.77;11.68;;;8.60;51.40;;;;;;1682007;85;21221;-67
2021/04/10 07:20:34;;;;;;;28.35;12.70;;;8.60;51.50;;;;;;1685408;85;21902;-73
2021/04/10 07:23:08;;;;;;;25.35;12.63;;;8.70;51.40;;;;;;1685032;85;21139;-73
2021/04/10 07:25:40;;;;;;;25.82;12.40;;;8.80;50.90;;;;;;1685275;85;21918;-73
2021/04/10 07:28:28;;;;;;;20.65;11.70;;;8.80;50.90;;;;;;1684856;85;21170;-73
2021/04/10 07:31:07;;;;;;;22.48;11.63;;;8.80;50.70;;;;;;1682124;85;21611;-74
2021/04/10 07:33:44;;;;;;;21.62;11.00;;;9.00;51.50;;;;;;1679481;85;21118;-74
2021/04/10 07:36:16;;;;;;;32.38;15.85;;;9.00;51.10;;;;;;1679478;85;21726;-85
2021/04/10 07:38:44;;;;;;;25.43;13.38;;;9.10;50.50;;;;;;1679564;85;21296;-76
2021/04/10 07:41:18;;;;;;;25.17;12.80;;;9.30;51.00;;;;;;1679298;85;21189;-76
2021/04/10 07:43:46;;;;;;;34.73;18.17;;;9.50;50.70;;;;;;1679062;85;21289;-76
2021/04/10 07:46:27;;;;;;;27.60;15.03;;;9.80;50.40;;;;;;1679469;85;21311;-80
2021/04/10 07:49:11;;;;;;;29.95;15.08;;;10.00;50.60;;;;;;1679526;85;21295;-74
2021/04/10 07:52:01;;;;;;;26.00;13.98;;;10.30;50.80;;;;;;1679728;85;21181;-76
2021/04/10 07:54:37;;;;;;;30.75;14.55;;;10.70;49.80;;;;;;1679282;85;21292;-73
2021/04/10 07:57:11;;;;;;;29.60;15.35;;;11.10;49.50;;;;;;1679415;85;21279;-73
2021/04/10 07:59:50;;;;;;;26.87;13.98;;;11.40;48.90;;;;;;1679368;85;21309;-75
2021/04/10 08:02:19;;;;;;;32.55;15.30;;;11.90;47.80;;;;;;1677821;85;21182;-79
2021/04/10 08:04:59;;;;;;;31.42;15.45;;;12.60;47.40;;;;;;1679665;85;21176;-73
2021/04/10 08:07:30;;;;;;;28.25;15.40;;;13.00;45.70;;;;;;1679567;85;21157;-78
2021/04/10 08:10:04;;;;;;;26.25;14.98;;;13.50;44.40;;;;;;1679056;85;21176;-75
2021/04/10 08:12:38;;;;;;;34.18;16.15;;;14.10;43.50;;;;;;1679417;85;21722;-74
2021/04/10 08:15:10;;;;;;;26.17;14.10;;;14.80;42.70;;;;;;1679769;85;21734;-76
2021/04/10 08:17:43;;;;;;;21.27;14.20;;;15.50;41.10;;;;;;1679452;85;21595;-74
2021/04/10 08:20:28;;;;;;;18.37;12.78;;;16.10;39.90;;;;;;1680191;85;21156;-76
2021/04/10 08:23:18;;;;;;;26.70;13.35;;;16.60;38.20;;;;;;1679445;85;21627;-75
2021/04/10 08:25:58;;;;;;;21.00;12.85;;;17.10;37.60;;;;;;1780661;79;22860;-76
2021/04/10 08:28:27;;;;;;;19.30;12.15;;;17.40;36.60;;;;;;1753866;82;21145;-72
2021/04/10 08:30:58;;;;;;;18.60;11.43;;;17.90;36.90;;;;;;1739293;82;21153;-76
2021/04/10 08:33:29;;;;;;;16.55;11.22;;;18.30;35.40;;;;;;1739927;82;21154;-75
2021/04/10 08:35:59;;;;;;;16.73;11.50;;;18.30;34.90;;;;;;1737943;82;21141;-74
2021/04/10 08:38:31;;;;;;;21.23;10.40;;;18.60;34.90;;;;;;1737485;82;21090;-75
2021/04/10 08:41:06;;;;;;;15.13;10.08;;;18.70;33.70;;;;;;1749807;81;21162;-74
2021/04/10 08:43:42;;;;;;;14.98;9.78;;;18.70;33.40;;;;;;1753549;82;21102;-76
2021/04/10 08:46:12;;;;;;;15.15;10.23;;;18.80;33.80;;;;;;1753241;82;21153;-77
2021/04/10 08:48:41;;;;;;;17.00;9.10;;;18.90;34.40;;;;;;1754375;82;21287;-76
2021/04/10 08:51:09;;;;;;;13.48;7.87;;;19.00;33.70;;;;;;1745461;81;21161;-75
2021/04/10 08:53:42;;;;;;;18.60;9.05;;;19.00;33.10;;;;;;1735623;82;21180;-74
2021/04/10 08:56:10;;;;;;;12.88;8.10;;;19.00;33.40;;;;;;1739605;82;21181;-75
2021/04/10 08:58:42;;;;;;;17.02;9.18;;;19.00;32.60;;;;;;1678048;85;21153;-78
2021/04/10 09:01:30;;;;;;;12.80;8.10;;;19.00;32.10;;;;;;1676924;85;21200;-77
2021/04/10 09:03:54;;;;;;;13.58;7.62;;;18.80;32.00;;;;;;1697479;84;21582;-77
2021/04/10 09:06:40;;;;;;;12.40;7.25;;;18.70;32.90;;;;;;1697497;83;21145;-74
2021/04/10 09:09:22;;;;;;;12.90;7.85;;;18.40;33.20;;;;;;1675405;85;21165;-81
2021/04/10 09:12:07;;;;;;;12.55;7.87;;;18.00;33.00;;;;;;1679593;85;21184;-75
2021/04/10 09:14:46;;;;;;;14.38;7.78;;;17.70;33.70;;;;;;1639087;87;21173;-75
2021/04/10 09:17:15;;;;;;;14.70;8.10;;;17.50;34.50;;;;;;1687081;83;21152;-73
2021/04/10 09:19:43;;;;;;;16.17;8.35;;;17.30;34.30;;;;;;1731977;82;21141;-74
2021/04/10 09:22:18;;;;;;;14.55;7.75;;;17.10;34.80;;;;;;1723978;83;21122;-71
2021/04/10 09:24:47;;;;;;;14.73;7.40;;;17.00;35.60;;;;;;1718478;82;21165;-70
2021/04/10 09:27:25;;;;;;;12.82;7.53;;;16.80;35.60;;;;;;1711140;83;21300;-71
2021/04/10 09:30:03;;;;;;;14.07;8.23;;;16.60;35.30;;;;;;1711431;83;21149;-71
2021/04/10 09:32:44;;;;;;;17.27;8.45;;;16.60;36.10;;;;;;1711157;83;21276;-70
2021/04/10 09:35:17;;;;;;;13.20;7.28;;;16.50;35.90;;;;;;1711064;84;21276;-72
2021/04/10 09:37:49;;;;;;;12.58;7.30;;;16.30;35.60;;;;;;1724954;82;21166;-68
2021/04/10 09:40:21;;;;;;;14.10;7.22;;;16.00;35.20;;;;;;1662868;85;21153;-69
2021/04/10 09:43:05;;;;;;;12.75;7.50;;;16.00;35.90;;;;;;1726045;82;21158;-70
2021/04/10 09:45:34;;;;;;;12.30;7.25;;;15.90;37.70;;;;;;1727755;82;21130;-69
2021/04/10 09:48:11;;;;;;;12.55;6.62;;;15.80;37.00;;;;;;1721395;82;21143;-69
2021/04/10 09:50:42;;;;;;;12.30;7.22;;;15.80;35.80;;;;;;1724376;82;21131;-67
2021/04/10 09:53:19;;;;;;;11.25;6.47;;;15.80;36.00;;;;;;1724650;82;21154;-69
2021/04/10 09:56:00;;;;;;;15.53;7.15;;;15.60;36.00;;;;;;1727824;82;21233;-70
2021/04/10 09:58:45;;;;;;;13.32;7.00;;;15.60;36.10;;;;;;1726808;82;21574;-69
2021/04/10 10:01:20;;;;;;;12.25;6.92;;;15.60;36.30;;;;;;1726750;82;21083;-68
2021/04/10 10:03:50;;;;;;;14.13;7.28;;;15.70;36.20;;;;;;1728070;82;21111;-70
2021/04/10 10:06:33;;;;;;;10.15;6.20;;;15.70;35.30;;;;;;1740176;82;21714;-71
2021/04/10 10:09:24;;;;;;;10.63;6.65;;;15.60;35.00;;;;;;1737677;82;21569;-70
2021/04/10 10:11:55;;;;;;;12.63;7.08;;;15.60;35.40;;;;;;1739881;82;21724;-70
2021/04/10 10:14:24;;;;;;;13.35;7.28;;;15.60;35.40;;;;;;1737014;82;21138;-70
2021/04/10 10:16:53;;;;;;;14.73;7.35;;;15.70;35.20;;;;;;1710622;82;21142;-71
2021/04/10 10:19:22;;;;;;;13.15;7.78;;;15.70;35.10;;;;;;1710669;83;21162;-71
2021/04/10 10:21:49;;;;;;;16.85;7.80;;;15.80;35.40;;;;;;1710637;84;21138;-73
2021/04/10 10:24:22;;;;;;;14.43;6.97;;;15.90;35.40;;;;;;1737783;81;21123;-75
2021/04/10 10:26:53;;;;;;;11.70;6.90;;;15.80;35.10;;;;;;1753419;82;21129;-76
2021/04/10 10:29:22;;;;;;;15.75;8.28;;;15.80;35.10;;;;;;1754250;82;21153;-75
2021/04/10 10:31:56;;;;;;;11.15;6.62;;;15.80;35.20;;;;;;1754162;82;21591;-77
2021/04/10 10:34:26;;;;;;;14.63;7.33;;;15.80;35.10;;;;;;1753857;82;21145;-75
2021/04/10 10:36:54;;;;;;;12.28;6.25;;;15.80;35.10;;;;;;1740622;82;21178;-73
2021/04/10 10:39:29;;;;;;;12.82;6.78;;;15.60;34.80;;;;;;1741958;82;21141;-76
2021/04/10 10:42:01;;;;;;;18.30;10.25;;;15.60;36.00;;;;;;1754333;81;21133;-77
2021/04/10 10:44:30;;;;;;;18.42;8.80;;;15.60;35.80;;;;;;1753881;81;21185;-78
2021/04/10 10:47:06;;;;;;;15.28;7.50;;;15.70;35.90;;;;;;1754043;81;21161;-76
2021/04/10 10:49:35;;;;;;;16.77;7.40;;;15.70;35.50;;;;;;1754701;82;21264;-73
2021/04/10 10:52:03;;;;;;;11.75;6.90;;;15.70;35.10;;;;;;1754103;81;21141;-72
2021/04/10 10:54:38;;;;;;;15.83;7.33;;;15.60;35.30;;;;;;1754305;82;21143;-78
2021/04/10 10:57:15;;;;;;;17.27;7.40;;;15.70;35.90;;;;;;1741717;82;21141;-71
2021/04/10 10:59:45;;;;;;;13.93;6.60;;;15.60;34.90;;;;;;1733593;82;21154;-71
2021/04/10 11:02:19;;;;;;;15.48;7.65;;;15.50;36.20;;;;;;1739257;82;21132;-70
2021/04/10 11:04:49;;;;;;;13.88;6.80;;;15.60;36.00;;;;;;1738520;82;21189;-72
2021/04/10 11:07:26;;;;;;;13.88;6.90;;;15.50;34.80;;;;;;1740275;82;21105;-74
2021/04/10 11:09:56;;;;;;;10.75;5.87;;;15.50;35.80;;;;;;1740634;82;21125;-73
2021/04/10 11:12:25;;;;;;;11.25;5.67;;;15.60;36.50;;;;;;1737547;82;21162;-71
2021/04/10 11:15:01;;;;;;;11.78;5.60;;;15.60;35.50;;;;;;1737398;82;21173;-71
2021/04/10 11:17:32;;;;;;;12.83;6.80;;;15.60;36.20;;;;;;1740553;82;21117;-71
2021/04/10 11:20:03;;;;;;;12.75;5.90;;;15.50;35.50;;;;;;1739271;82;21761;-71
2021/04/10 11:22:34;;;;;;;12.68;6.67;;;15.50;35.50;;;;;;1734408;82;21157;-71
2021/04/10 11:25:02;;;;;;;14.18;6.20;;;15.50;35.40;;;;;;1736919;82;21148;-71
2021/04/10 11:27:35;;;;;;;9.45;6.15;;;15.50;35.90;;;;;;1738700;82;21121;-72
2021/04/10 11:30:12;;;;;;;9.03;5.62;;;15.60;36.30;;;;;;1736816;82;21086;-70
2021/04/10 11:32:44;;;;;;;10.68;5.65;;;15.60;35.70;;;;;;1737086;81;21612;-69
2021/04/10 11:35:23;;;;;;;9.88;6.08;;;15.50;35.30;;;;;;1738588;81;21129;-71
2021/04/10 11:37:56;;;;;;;10.30;5.62;;;15.50;35.50;;;;;;1739935;82;21132;-72
2021/04/10 11:40:29;;;;;;;9.85;5.47;;;15.50;35.90;;;;;;1737297;82;21993;-71
2021/04/10 11:43:02;;;;;;;9.50;5.20;;;15.40;36.10;;;;;;1737655;82;21098;-71
2021/04/10 11:45:40;;;;;;;10.65;5.33;;;15.50;36.00;;;;;;1739940;82;21145;-71
2021/04/10 11:48:19;;;;;;;9.43;5.70;;;15.50;36.20;;;;;;1741660;81;21121;-72
2021/04/10 11:51:03;;;;;;;12.78;5.60;;;15.50;36.00;;;;;;1740379;82;21563;-71
2021/04/10 11:53:38;;;;;;;10.13;5.17;;;15.40;35.60;;;;;;1741532;81;21157;-71
2021/04/10 11:56:31;;;;;;;11.18;5.55;;;15.40;35.30;;;;;;1737926;82;21517;-71
2021/04/10 11:59:09;;;;;;;11.28;5.17;;;15.40;35.60;;;;;;1739905;82;21635;-72
2021/04/10 12:01:51;;;;;;;10.48;5.22;;;15.50;36.20;;;;;;1737853;82;21128;-72
2021/04/10 12:04:31;;;;;;;11.97;5.65;;;15.60;35.50;;;;;;1740242;82;21421;-71
2021/04/10 12:07:13;;;;;;;11.65;5.83;;;15.60;35.70;;;;;;1740474;82;21090;-73
2021/04/10 12:09:42;;;;;;;11.60;5.90;;;15.60;35.20;;;;;;1737813;82;21138;-71
2021/04/10 12:12:11;;;;;;;8.43;5.12;;;15.70;35.80;;;;;;1738373;81;21141;-71
2021/04/10 12:14:41;;;;;;;11.15;6.12;;;15.70;35.70;;;;;;1741660;82;21153;-70
2021/04/10 12:17:13;;;;;;;11.20;5.95;;;15.80;35.60;;;;;;1730342;81;21133;-73
2021/04/10 12:19:41;;;;;;;13.15;5.85;;;15.90;35.40;;;;;;1724205;83;21705;-71
2021/04/10 12:22:09;;;;;;;10.40;5.35;;;15.90;36.70;;;;;;1724539;83;21137;-71
2021/04/10 12:24:36;;;;;;;8.78;5.25;;;15.90;35.20;;;;;;1738322;82;21140;-71
2021/04/10 12:27:07;;;;;;;10.78;5.03;;;16.00;34.70;;;;;;1724217;81;21533;-71
2021/04/10 12:29:35;;;;;;;11.28;5.42;;;16.00;34.60;;;;;;1726740;82;21709;-74
2021/04/10 12:32:03;;;;;;;9.90;5.40;;;16.00;35.30;;;;;;1725678;82;21142;-71
2021/04/10 12:34:30;;;;;;;9.98;5.17;;;16.00;34.30;;;;;;1723768;82;21141;-71
2021/04/10 12:36:59;;;;;;;8.20;5.15;;;16.10;34.10;;;;;;1725639;82;21553;-72
2021/04/10 12:39:26;;;;;;;11.30;5.92;;;16.00;34.00;;;;;;1726334;82;21134;-70
2021/04/10 12:41:54;;;;;;;10.90;5.20;;;16.00;34.80;;;;;;1723883;82;21166;-71
2021/04/10 12:44:22;;;;;;;11.75;5.15;;;16.00;34.30;;;;;;1724580;82;21133;-71
2021/04/10 12:46:49;;;;;;;9.35;5.08;;;16.00;34.50;;;;;;1726965;82;21149;-72
2021/04/10 12:49:17;;;;;;;9.63;5.40;;;16.00;34.10;;;;;;1724879;82;21138;-72
2021/04/10 12:51:45;;;;;;;10.08;5.67;;;16.00;34.10;;;;;;1707534;82;21118;-72
2021/04/10 12:54:13;;;;;;;9.35;5.12;;;15.90;33.80;;;;;;1723619;82;21162;-71
2021/04/10 12:56:40;;;;;;;8.68;5.08;;;15.80;34.20;;;;;;1725209;82;21106;-72
2021/04/10 12:59:10;;;;;;;10.35;5.65;;;15.80;34.20;;;;;;1726573;82;21145;-72
2021/04/10 13:01:37;;;;;;;12.35;5.22;;;15.90;34.30;;;;;;1724644;82;21137;-73
2021/04/10 13:04:06;;;;;;;10.88;5.58;;;15.80;34.40;;;;;;1724035;82;21588;-72
2021/04/10 13:06:34;;;;;;;8.98;5.00;;;15.80;34.40;;;;;;1718230;82;21633;-77
2021/04/10 13:09:01;;;;;;;11.65;5.28;;;15.80;34.70;;;;;;1726840;82;21568;-71